sensor_id;sensor_type;location;lat;lon;timestamp;pressure;altitude;pressure_sealevel;temperature;humidity
8075;BME280;4080;42.676;23.372;2022-09-12T00:01:06;94911.84;;;17.95;100.00
8075;BME280;4080;42.676;23.372;2022-09-12T00:03:33;94922.53;;;17.95;100.00
8075;BME280;4080;42.676;23.372;2022-09-12T00:06:07;94918.00;;;17.87;100.00
8075;BME280;4080;42.676;23.372;2022-09-12T00:08:34;94920.97;;;17.77;100.00
8075;BME280;4080;42.676;23.372;2022-09-12T00:11:03;94926.59;;;17.75;100.00
8075;BME280;4080;42.676;23.372;2022-09-12T00:13:32;94925.03;;;17.74;100.00
8075;BME280;4080;42.676;23.372;2022-09-12T00:15:59;94921.41;;;17.53;100.00
8075;BME280;4080;42.676;23.372;2022-09-12T00:18:26;94919.53;;;17.53;100.00
8075;BME280;4080;42.676;23.372;2022-09-12T00:20:53;94931.09;;;17.40;100.00
8075;BME280;4080;42.676;23.372;2022-09-12T00:23:19;94923.25;;;17.18;100.00
8075;BME280;4080;42.676;23.372;2022-09-12T00:25:47;94938.56;;;17.03;100.00
8075;BME280;4080;42.676;23.372;2022-09-12T00:28:15;94766.94;;;15.82;100.00
8075;BME280;4080;42.676;23.372;2022-09-12T00:30:46;94931.63;;;16.85;100.00
8075;BME280;4080;42.676;23.372;2022-09-12T00:33:14;94928.81;;;16.90;100.00
8075;BME280;4080;42.676;23.372;2022-09-12T00:35:42;94922.25;;;16.96;100.00
8075;BME280;4080;42.676;23.372;2022-09-12T00:38:10;94926.03;;;16.95;100.00
8075;BME280;4080;42.676;23.372;2022-09-12T00:40:37;94920.38;;;17.05;100.00
8075;BME280;4080;42.676;23.372;2022-09-12T00:43:04;94913.22;;;17.15;100.00
8075;BME280;4080;42.676;23.372;2022-09-12T00:45:31;94930.78;;;17.16;100.00
8075;BME280;4080;42.676;23.372;2022-09-12T00:48:01;94895.78;;;17.00;100.00
8075;BME280;4080;42.676;23.372;2022-09-12T00:50:31;94935.66;;;17.31;100.00
8075;BME280;4080;42.676;23.372;2022-09-12T00:53:02;94924.84;;;17.36;100.00
8075;BME280;4080;42.676;23.372;2022-09-12T00:55:32;94928.75;;;17.38;100.00
8075;BME280;4080;42.676;23.372;2022-09-12T00:58:04;94929.88;;;17.46;100.00
8075;BME280;4080;42.676;23.372;2022-09-12T01:00:34;94926.72;;;17.44;100.00
8075;BME280;4080;42.676;23.372;2022-09-12T01:03:04;94921.22;;;17.32;100.00
8075;BME280;4080;42.676;23.372;2022-09-12T01:05:34;94921.38;;;17.44;100.00
8075;BME280;4080;42.676;23.372;2022-09-12T01:08:03;94878.41;;;17.20;100.00
8075;BME280;4080;42.676;23.372;2022-09-12T01:10:30;94910.28;;;17.51;100.00
8075;BME280;4080;42.676;23.372;2022-09-12T01:12:59;94912.78;;;17.56;100.00
8075;BME280;4080;42.676;23.372;2022-09-12T01:15:26;94916.09;;;17.53;100.00
8075;BME280;4080;42.676;23.372;2022-09-12T01:18:06;94914.19;;;17.53;100.00
8075;BME280;4080;42.676;23.372;2022-09-12T01:20:49;94841.84;;;17.12;100.00
8075;BME280;4080;42.676;23.372;2022-09-12T01:23:49;94912.47;;;17.57;100.00
8075;BME280;4080;42.676;23.372;2022-09-12T01:26:49;94917.97;;;17.52;100.00
8075;BME280;4080;42.676;23.372;2022-09-12T01:32:20;94908.97;;;17.14;100.00
8075;BME280;4080;42.676;23.372;2022-09-12T01:34:53;94907.22;;;17.00;100.00
8075;BME280;4080;42.676;23.372;2022-09-12T01:37:30;94892.28;;;16.82;100.00
8075;BME280;4080;42.676;23.372;2022-09-12T01:40:03;94907.16;;;16.83;100.00
8075;BME280;4080;42.676;23.372;2022-09-12T01:42:42;94907.50;;;16.90;100.00
8075;BME280;4080;42.676;23.372;2022-09-12T01:45:15;94915.97;;;16.92;100.00
8075;BME280;4080;42.676;23.372;2022-09-12T01:47:49;94854.44;;;16.54;100.00
8075;BME280;4080;42.676;23.372;2022-09-12T01:50:18;94910.50;;;16.89;100.00
8075;BME280;4080;42.676;23.372;2022-09-12T01:52:49;94908.91;;;16.88;100.00
8075;BME280;4080;42.676;23.372;2022-09-12T01:55:21;94889.50;;;16.96;100.00
8075;BME280;4080;42.676;23.372;2022-09-12T01:57:52;94899.06;;;17.05;100.00
8075;BME280;4080;42.676;23.372;2022-09-12T02:00:23;94895.00;;;16.99;100.00
8075;BME280;4080;42.676;23.372;2022-09-12T02:02:56;94897.47;;;16.87;100.00
8075;BME280;4080;42.676;23.372;2022-09-12T02:05:30;94831.34;;;16.41;100.00
8075;BME280;4080;42.676;23.372;2022-09-12T02:08:02;94895.91;;;16.86;100.00
8075;BME280;4080;42.676;23.372;2022-09-12T02:10:33;94898.22;;;16.79;100.00
8075;BME280;4080;42.676;23.372;2022-09-12T02:13:07;94904.63;;;16.78;100.00
8075;BME280;4080;42.676;23.372;2022-09-12T02:15:39;94896.78;;;16.73;100.00
8075;BME280;4080;42.676;23.372;2022-09-12T02:18:11;94876.00;;;16.53;100.00
8075;BME280;4080;42.676;23.372;2022-09-12T02:20:41;94909.28;;;16.64;100.00
8075;BME280;4080;42.676;23.372;2022-09-12T02:23:11;94902.63;;;16.53;100.00
8075;BME280;4080;42.676;23.372;2022-09-12T02:25:43;94895.06;;;16.37;100.00
8075;BME280;4080;42.676;23.372;2022-09-12T02:28:14;94904.44;;;16.35;100.00
8075;BME280;4080;42.676;23.372;2022-09-12T02:30:46;94858.28;;;16.08;100.00
8075;BME280;4080;42.676;23.372;2022-09-12T02:33:23;94891.75;;;16.32;100.00
8075;BME280;4080;42.676;23.372;2022-09-12T02:35:54;94901.75;;;16.26;100.00
8075;BME280;4080;42.676;23.372;2022-09-12T02:38:27;94906.91;;;16.23;100.00
8075;BME280;4080;42.676;23.372;2022-09-12T02:40:58;94916.06;;;16.17;100.00
8075;BME280;4080;42.676;23.372;2022-09-12T02:43:25;94914.00;;;16.05;100.00
8075;BME280;4080;42.676;23.372;2022-09-12T02:45:54;94914.94;;;16.09;100.00
8075;BME280;4080;42.676;23.372;2022-09-12T02:48:25;94907.94;;;16.13;100.00
8075;BME280;4080;42.676;23.372;2022-09-12T02:50:53;94904.03;;;16.19;100.00
8075;BME280;4080;42.676;23.372;2022-09-12T02:53:21;94897.28;;;16.13;100.00
8075;BME280;4080;42.676;23.372;2022-09-12T02:55:47;94890.69;;;16.10;100.00
8075;BME280;4080;42.676;23.372;2022-09-12T02:58:17;94919.66;;;16.12;100.00
8075;BME280;4080;42.676;23.372;2022-09-12T03:00:48;94922.09;;;16.00;100.00
8075;BME280;4080;42.676;23.372;2022-09-12T03:03:37;94928.50;;;15.99;100.00
8075;BME280;4080;42.676;23.372;2022-09-12T03:06:15;94917.56;;;16.00;100.00
8075;BME280;4080;42.676;23.372;2022-09-12T03:08:55;94921.72;;;16.15;100.00
8075;BME280;4080;42.676;23.372;2022-09-12T03:11:33;94924.59;;;16.27;100.00
8075;BME280;4080;42.676;23.372;2022-09-12T03:14:13;94927.78;;;16.38;100.00
8075;BME280;4080;42.676;23.372;2022-09-12T03:16:50;94928.59;;;16.47;100.00
8075;BME280;4080;42.676;23.372;2022-09-12T03:19:24;94924.03;;;16.70;100.00
8075;BME280;4080;42.676;23.372;2022-09-12T03:22:02;94926.78;;;16.87;100.00
8075;BME280;4080;42.676;23.372;2022-09-12T03:24:38;94923.06;;;17.05;100.00
8075;BME280;4080;42.676;23.372;2022-09-12T03:27:11;94929.81;;;17.12;100.00
8075;BME280;4080;42.676;23.372;2022-09-12T03:29:41;94895.75;;;16.91;100.00
8075;BME280;4080;42.676;23.372;2022-09-12T03:32:09;94926.81;;;17.13;100.00
8075;BME280;4080;42.676;23.372;2022-09-12T03:34:37;94923.19;;;17.00;100.00
8075;BME280;4080;42.676;23.372;2022-09-12T03:37:04;94919.81;;;16.69;100.00
8075;BME280;4080;42.676;23.372;2022-09-12T03:39:31;94926.03;;;16.64;100.00
8075;BME280;4080;42.676;23.372;2022-09-12T03:41:58;94924.28;;;16.60;100.00
8075;BME280;4080;42.676;23.372;2022-09-12T03:44:25;94926.81;;;16.65;100.00
8075;BME280;4080;42.676;23.372;2022-09-12T03:46:52;94927.44;;;16.62;100.00
8075;BME280;4080;42.676;23.372;2022-09-12T03:49:18;94930.00;;;16.67;100.00
8075;BME280;4080;42.676;23.372;2022-09-12T03:51:46;94922.03;;;16.75;100.00
8075;BME280;4080;42.676;23.372;2022-09-12T03:54:13;94929.53;;;16.73;100.00
8075;BME280;4080;42.676;23.372;2022-09-12T03:56:40;94926.56;;;16.75;100.00
8075;BME280;4080;42.676;23.372;2022-09-12T03:59:07;94925.31;;;16.81;100.00
8075;BME280;4080;42.676;23.372;2022-09-12T04:01:34;94929.91;;;16.89;100.00
8075;BME280;4080;42.676;23.372;2022-09-12T04:04:02;94930.88;;;16.93;100.00
8075;BME280;4080;42.676;23.372;2022-09-12T04:06:29;94923.75;;;16.80;100.00
8075;BME280;4080;42.676;23.372;2022-09-12T04:08:57;94925.13;;;16.69;100.00
8075;BME280;4080;42.676;23.372;2022-09-12T04:11:24;94926.34;;;16.63;100.00
8075;BME280;4080;42.676;23.372;2022-09-12T04:13:51;94922.56;;;16.55;100.00
8075;BME280;4080;42.676;23.372;2022-09-12T04:16:18;94930.84;;;16.54;100.00
8075;BME280;4080;42.676;23.372;2022-09-12T04:18:45;94898.34;;;16.34;100.00
8075;BME280;4080;42.676;23.372;2022-09-12T04:21:14;94909.09;;;16.60;100.00
8075;BME280;4080;42.676;23.372;2022-09-12T04:23:41;94933.53;;;16.93;100.00
8075;BME280;4080;42.676;23.372;2022-09-12T04:26:10;94909.41;;;16.59;100.00
8075;BME280;4080;42.676;23.372;2022-09-12T04:28:38;94933.69;;;16.57;100.00
8075;BME280;4080;42.676;23.372;2022-09-12T04:31:07;94943.19;;;16.50;100.00
8075;BME280;4080;42.676;23.372;2022-09-12T04:33:34;94908.22;;;16.42;100.00
8075;BME280;4080;42.676;23.372;2022-09-12T04:36:03;94924.69;;;16.75;100.00
8075;BME280;4080;42.676;23.372;2022-09-12T04:38:31;94937.69;;;17.17;100.00
8075;BME280;4080;42.676;23.372;2022-09-12T04:40:58;94942.56;;;17.41;100.00
8075;BME280;4080;42.676;23.372;2022-09-12T04:43:26;94943.69;;;17.65;100.00
8075;BME280;4080;42.676;23.372;2022-09-12T04:45:53;94947.03;;;17.88;100.00
8075;BME280;4080;42.676;23.372;2022-09-12T04:48:19;94954.41;;;18.09;100.00
8075;BME280;4080;42.676;23.372;2022-09-12T04:50:46;94957.81;;;18.26;100.00
8075;BME280;4080;42.676;23.372;2022-09-12T04:53:13;94963.44;;;18.42;100.00
8075;BME280;4080;42.676;23.372;2022-09-12T04:55:40;94948.03;;;18.48;100.00
8075;BME280;4080;42.676;23.372;2022-09-12T04:58:06;94959.59;;;18.78;100.00
8075;BME280;4080;42.676;23.372;2022-09-12T05:00:36;94968.97;;;18.92;100.00
8075;BME280;4080;42.676;23.372;2022-09-12T05:03:03;94969.59;;;18.98;100.00
8075;BME280;4080;42.676;23.372;2022-09-12T05:05:30;94967.50;;;19.04;100.00
8075;BME280;4080;42.676;23.372;2022-09-12T05:07:56;94975.28;;;19.17;100.00
8075;BME280;4080;42.676;23.372;2022-09-12T05:10:23;94970.53;;;19.32;100.00
8075;BME280;4080;42.676;23.372;2022-09-12T05:12:51;94972.03;;;19.41;100.00
8075;BME280;4080;42.676;23.372;2022-09-12T05:15:18;94972.63;;;19.47;100.00
8075;BME280;4080;42.676;23.372;2022-09-12T05:17:46;94977.59;;;19.57;100.00
8075;BME280;4080;42.676;23.372;2022-09-12T05:20:13;94979.06;;;19.75;100.00
8075;BME280;4080;42.676;23.372;2022-09-12T05:22:41;94970.19;;;19.83;100.00
8075;BME280;4080;42.676;23.372;2022-09-12T05:25:08;94965.13;;;19.91;100.00
8075;BME280;4080;42.676;23.372;2022-09-12T05:27:35;94973.97;;;20.03;100.00
8075;BME280;4080;42.676;23.372;2022-09-12T05:30:02;94964.69;;;20.22;100.00
8075;BME280;4080;42.676;23.372;2022-09-12T05:32:30;94964.06;;;20.37;100.00
8075;BME280;4080;42.676;23.372;2022-09-12T05:34:59;94969.84;;;20.60;100.00
8075;BME280;4080;42.676;23.372;2022-09-12T05:37:26;94982.88;;;20.82;100.00
8075;BME280;4080;42.676;23.372;2022-09-12T05:39:53;94967.06;;;20.68;100.00
8075;BME280;4080;42.676;23.372;2022-09-12T05:42:19;94981.19;;;20.44;100.00
8075;BME280;4080;42.676;23.372;2022-09-12T05:44:47;94977.78;;;20.02;100.00
8075;BME280;4080;42.676;23.372;2022-09-12T05:47:14;94965.81;;;19.79;100.00
8075;BME280;4080;42.676;23.372;2022-09-12T05:49:41;94968.56;;;19.91;100.00
8075;BME280;4080;42.676;23.372;2022-09-12T05:52:13;94962.97;;;20.17;100.00
8075;BME280;4080;42.676;23.372;2022-09-12T05:54:40;94969.03;;;20.47;100.00
8075;BME280;4080;42.676;23.372;2022-09-12T05:57:07;94967.09;;;20.81;100.00
8075;BME280;4080;42.676;23.372;2022-09-12T05:59:35;94955.72;;;21.08;100.00
8075;BME280;4080;42.676;23.372;2022-09-12T06:02:02;94952.94;;;21.41;100.00
8075;BME280;4080;42.676;23.372;2022-09-12T06:04:29;94957.25;;;21.70;100.00
8075;BME280;4080;42.676;23.372;2022-09-12T06:06:55;94943.56;;;21.87;100.00
8075;BME280;4080;42.676;23.372;2022-09-12T06:09:23;94948.19;;;22.02;100.00
8075;BME280;4080;42.676;23.372;2022-09-12T06:11:50;94956.25;;;22.15;100.00
8075;BME280;4080;42.676;23.372;2022-09-12T06:14:17;94949.69;;;22.28;100.00
8075;BME280;4080;42.676;23.372;2022-09-12T06:16:45;94950.72;;;22.51;100.00
8075;BME280;4080;42.676;23.372;2022-09-12T06:19:14;94949.78;;;22.75;99.00
8075;BME280;4080;42.676;23.372;2022-09-12T06:21:42;94955.47;;;22.86;97.24
8075;BME280;4080;42.676;23.372;2022-09-12T06:24:10;94939.59;;;22.81;96.54
8075;BME280;4080;42.676;23.372;2022-09-12T06:26:38;94959.72;;;23.03;95.18
8075;BME280;4080;42.676;23.372;2022-09-12T06:29:05;94966.50;;;23.12;93.30
8075;BME280;4080;42.676;23.372;2022-09-12T06:31:34;94966.25;;;23.02;94.44
8075;BME280;4080;42.676;23.372;2022-09-12T06:34:02;94974.81;;;23.07;95.58
8075;BME280;4080;42.676;23.372;2022-09-12T06:36:31;94982.19;;;23.26;96.57
8075;BME280;4080;42.676;23.372;2022-09-12T06:38:59;94971.59;;;23.33;94.19
8075;BME280;4080;42.676;23.372;2022-09-12T06:41:28;94942.69;;;23.14;95.06
8075;BME280;4080;42.676;23.372;2022-09-12T06:43:57;94981.75;;;23.40;95.83
8075;BME280;4080;42.676;23.372;2022-09-12T06:46:24;94985.41;;;23.32;93.64
8075;BME280;4080;42.676;23.372;2022-09-12T06:48:52;94950.22;;;22.77;95.03
8075;BME280;4080;42.676;23.372;2022-09-12T06:51:19;94980.72;;;22.81;98.59
8075;BME280;4080;42.676;23.372;2022-09-12T06:53:47;94980.97;;;22.92;100.00
8075;BME280;4080;42.676;23.372;2022-09-12T06:56:15;94981.94;;;23.31;99.48
8075;BME280;4080;42.676;23.372;2022-09-12T06:58:43;95000.28;;;23.76;95.32
8075;BME280;4080;42.676;23.372;2022-09-12T07:01:12;94991.41;;;23.92;94.28
8075;BME280;4080;42.676;23.372;2022-09-12T07:03:40;94987.06;;;24.06;91.47
8075;BME280;4080;42.676;23.372;2022-09-12T07:06:08;95006.66;;;24.23;92.42
8075;BME280;4080;42.676;23.372;2022-09-12T07:08:35;94971.13;;;23.98;89.53
8075;BME280;4080;42.676;23.372;2022-09-12T07:11:09;95008.41;;;23.96;89.70
8075;BME280;4080;42.676;23.372;2022-09-12T07:13:36;94979.50;;;23.58;92.43
8075;BME280;4080;42.676;23.372;2022-09-12T07:16:04;94977.22;;;23.44;93.95
8075;BME280;4080;42.676;23.372;2022-09-12T07:18:33;95013.44;;;23.62;94.90
8075;BME280;4080;42.676;23.372;2022-09-12T07:21:00;95004.25;;;23.82;94.43
8075;BME280;4080;42.676;23.372;2022-09-12T07:23:27;95017.19;;;23.93;90.71
8075;BME280;4080;42.676;23.372;2022-09-12T07:25:55;95017.59;;;23.75;91.18
8075;BME280;4080;42.676;23.372;2022-09-12T07:28:22;95016.13;;;23.62;91.11
8075;BME280;4080;42.676;23.372;2022-09-12T07:30:50;94976.78;;;23.26;94.37
8075;BME280;4080;42.676;23.372;2022-09-12T07:33:18;94965.59;;;23.40;91.30
8075;BME280;4080;42.676;23.372;2022-09-12T07:35:46;95007.81;;;23.87;90.72
8075;BME280;4080;42.676;23.372;2022-09-12T07:38:14;95009.38;;;23.88;89.04
8075;BME280;4080;42.676;23.372;2022-09-12T07:40:41;95006.00;;;23.91;88.63
8075;BME280;4080;42.676;23.372;2022-09-12T07:43:08;95001.03;;;23.93;89.59
8075;BME280;4080;42.676;23.372;2022-09-12T07:45:35;95004.91;;;23.76;84.83
8075;BME280;4080;42.676;23.372;2022-09-12T07:48:02;94998.91;;;23.51;88.48
8075;BME280;4080;42.676;23.372;2022-09-12T07:50:29;95008.94;;;23.85;87.58
8075;BME280;4080;42.676;23.372;2022-09-12T07:52:57;95005.19;;;24.25;86.33
8075;BME280;4080;42.676;23.372;2022-09-12T07:55:24;94995.09;;;24.61;84.35
8075;BME280;4080;42.676;23.372;2022-09-12T07:57:51;95005.94;;;24.84;80.35
8075;BME280;4080;42.676;23.372;2022-09-12T08:00:18;94997.28;;;25.17;81.42
8075;BME280;4080;42.676;23.372;2022-09-12T08:02:49;95002.59;;;25.36;77.50
8075;BME280;4080;42.676;23.372;2022-09-12T08:05:16;94985.00;;;25.46;75.64
8075;BME280;4080;42.676;23.372;2022-09-12T08:07:43;95004.75;;;25.73;75.83
8075;BME280;4080;42.676;23.372;2022-09-12T08:10:11;95007.72;;;25.94;73.47
8075;BME280;4080;42.676;23.372;2022-09-12T08:12:38;95013.59;;;25.99;72.72
8075;BME280;4080;42.676;23.372;2022-09-12T08:15:06;94999.91;;;26.15;73.35
8075;BME280;4080;42.676;23.372;2022-09-12T08:17:32;95004.22;;;26.20;72.62
8075;BME280;4080;42.676;23.372;2022-09-12T08:20:00;95004.09;;;25.83;75.02
8075;BME280;4080;42.676;23.372;2022-09-12T08:22:29;95001.84;;;25.62;74.42
8075;BME280;4080;42.676;23.372;2022-09-12T08:24:56;94994.13;;;25.37;74.29
8075;BME280;4080;42.676;23.372;2022-09-12T08:27:24;95000.19;;;25.31;77.24
8075;BME280;4080;42.676;23.372;2022-09-12T08:29:51;94991.28;;;25.04;75.55
8075;BME280;4080;42.676;23.372;2022-09-12T08:32:20;95010.59;;;25.06;77.06
8075;BME280;4080;42.676;23.372;2022-09-12T08:34:46;94994.59;;;24.97;79.09
8075;BME280;4080;42.676;23.372;2022-09-12T08:37:13;94979.38;;;24.86;78.41
8075;BME280;4080;42.676;23.372;2022-09-12T08:39:40;94979.59;;;24.77;79.30
8075;BME280;4080;42.676;23.372;2022-09-12T08:42:09;94983.13;;;25.00;82.13
8075;BME280;4080;42.676;23.372;2022-09-12T08:45:04;95003.31;;;25.33;78.59
8075;BME280;4080;42.676;23.372;2022-09-12T08:47:35;94984.72;;;25.05;76.11
8075;BME280;4080;42.676;23.372;2022-09-12T08:50:13;94981.50;;;24.76;78.47
8075;BME280;4080;42.676;23.372;2022-09-12T08:52:48;94983.84;;;24.55;79.77
8075;BME280;4080;42.676;23.372;2022-09-12T08:55:24;94984.50;;;24.29;81.64
8075;BME280;4080;42.676;23.372;2022-09-12T08:57:53;94992.53;;;24.10;81.86
8075;BME280;4080;42.676;23.372;2022-09-12T09:00:21;94984.81;;;24.08;82.33
8075;BME280;4080;42.676;23.372;2022-09-12T09:05:51;94977.03;;;24.84;78.84
8075;BME280;4080;42.676;23.372;2022-09-12T09:08:39;94973.88;;;25.24;76.57
8075;BME280;4080;42.676;23.372;2022-09-12T09:11:20;94974.88;;;25.39;73.84
8075;BME280;4080;42.676;23.372;2022-09-12T09:14:00;94982.56;;;25.63;74.22
8075;BME280;4080;42.676;23.372;2022-09-12T09:16:49;94978.44;;;25.99;71.36
8075;BME280;4080;42.676;23.372;2022-09-12T09:19:20;94974.03;;;26.14;69.74
8075;BME280;4080;42.676;23.372;2022-09-12T09:21:50;94974.44;;;26.16;68.57
8075;BME280;4080;42.676;23.372;2022-09-12T09:24:24;94970.22;;;25.89;68.90
8075;BME280;4080;42.676;23.372;2022-09-12T09:26:55;94974.41;;;25.33;70.55
8075;BME280;4080;42.676;23.372;2022-09-12T09:29:25;94962.41;;;24.85;72.98
8075;BME280;4080;42.676;23.372;2022-09-12T09:31:57;94965.22;;;24.92;76.64
8075;BME280;4080;42.676;23.372;2022-09-12T09:34:28;94967.50;;;25.36;76.71
8075;BME280;4080;42.676;23.372;2022-09-12T09:37:01;94956.22;;;25.80;70.83
8075;BME280;4080;42.676;23.372;2022-09-12T09:39:42;94927.97;;;25.74;70.72
8075;BME280;4080;42.676;23.372;2022-09-12T09:42:23;94946.78;;;26.30;71.22
8075;BME280;4080;42.676;23.372;2022-09-12T09:44:53;94955.88;;;26.45;69.13
8075;BME280;4080;42.676;23.372;2022-09-12T09:47:23;94952.38;;;26.44;68.17
8075;BME280;4080;42.676;23.372;2022-09-12T09:49:49;94931.31;;;26.30;67.62
8075;BME280;4080;42.676;23.372;2022-09-12T09:52:22;94952.47;;;26.55;67.53
8075;BME280;4080;42.676;23.372;2022-09-12T09:54:52;94952.88;;;26.57;68.45
8075;BME280;4080;42.676;23.372;2022-09-12T09:57:39;94834.59;;;26.13;66.73
8075;BME280;4080;42.676;23.372;2022-09-12T10:00:27;94951.88;;;27.09;67.64
8075;BME280;4080;42.676;23.372;2022-09-12T10:06:24;94946.13;;;26.74;67.31
8075;BME280;4080;42.676;23.372;2022-09-12T10:09:15;94940.44;;;26.89;68.42
8075;BME280;4080;42.676;23.372;2022-09-12T10:11:43;94940.75;;;27.21;68.17
8075;BME280;4080;42.676;23.372;2022-09-12T10:14:30;94943.91;;;27.27;63.31
8075;BME280;4080;42.676;23.372;2022-09-12T10:16:57;94930.56;;;27.04;63.82
8075;BME280;4080;42.676;23.372;2022-09-12T10:19:34;94937.16;;;27.07;62.46
8075;BME280;4080;42.676;23.372;2022-09-12T10:22:03;94933.69;;;27.10;65.49
8075;BME280;4080;42.676;23.372;2022-09-12T10:24:33;94939.72;;;27.40;63.57
8075;BME280;4080;42.676;23.372;2022-09-12T10:27:11;94932.72;;;27.32;61.42
8075;BME280;4080;42.676;23.372;2022-09-12T10:29:42;94933.28;;;27.04;65.41
8075;BME280;4080;42.676;23.372;2022-09-12T10:32:20;94937.13;;;27.03;67.93
8075;BME280;4080;42.676;23.372;2022-09-12T10:34:53;94939.38;;;26.98;67.34
8075;BME280;4080;42.676;23.372;2022-09-12T10:37:29;94945.00;;;26.78;66.75
8075;BME280;4080;42.676;23.372;2022-09-12T10:39:57;94943.44;;;26.77;68.31
8075;BME280;4080;42.676;23.372;2022-09-12T10:42:45;94945.94;;;26.97;64.68
8075;BME280;4080;42.676;23.372;2022-09-12T10:45:24;94944.38;;;26.96;65.12
8075;BME280;4080;42.676;23.372;2022-09-12T10:47:52;94921.41;;;26.79;62.82
8075;BME280;4080;42.676;23.372;2022-09-12T10:50:22;94802.09;;;26.06;60.22
8075;BME280;4080;42.676;23.372;2022-09-12T10:52:52;94926.47;;;26.84;61.11
8075;BME280;4080;42.676;23.372;2022-09-12T10:55:23;94941.59;;;26.88;60.53
8075;BME280;4080;42.676;23.372;2022-09-12T10:58:13;94935.44;;;26.91;60.54
8075;BME280;4080;42.676;23.372;2022-09-12T11:00:51;94937.38;;;26.91;59.56
8075;BME280;4080;42.676;23.372;2022-09-12T11:03:38;94932.53;;;26.67;60.96
8075;BME280;4080;42.676;23.372;2022-09-12T11:06:19;94934.97;;;26.42;63.58
8075;BME280;4080;42.676;23.372;2022-09-12T11:08:56;94939.69;;;26.18;64.94
8075;BME280;4080;42.676;23.372;2022-09-12T11:11:41;94938.94;;;25.61;66.53
8075;BME280;4080;42.676;23.372;2022-09-12T11:14:27;94932.38;;;25.36;69.89
8075;BME280;4080;42.676;23.372;2022-09-12T11:17:02;94935.25;;;25.20;70.81
8075;BME280;4080;42.676;23.372;2022-09-12T11:19:58;94936.88;;;25.02;71.57
8075;BME280;4080;42.676;23.372;2022-09-12T11:22:41;94929.63;;;25.06;71.36
8075;BME280;4080;42.676;23.372;2022-09-12T11:25:20;94932.28;;;25.29;73.49
8075;BME280;4080;42.676;23.372;2022-09-12T11:30:50;94930.03;;;24.85;73.41
8075;BME280;4080;42.676;23.372;2022-09-12T11:33:27;94932.50;;;24.94;71.86
8075;BME280;4080;42.676;23.372;2022-09-12T11:36:00;94919.56;;;24.80;72.09
8075;BME280;4080;42.676;23.372;2022-09-12T11:38:44;94937.78;;;24.44;74.92
8075;BME280;4080;42.676;23.372;2022-09-12T11:41:22;94931.13;;;24.19;74.14
8075;BME280;4080;42.676;23.372;2022-09-12T11:43:54;94935.66;;;23.96;75.15
8075;BME280;4080;42.676;23.372;2022-09-12T11:46:26;94885.69;;;23.44;75.24
8075;BME280;4080;42.676;23.372;2022-09-12T11:48:58;94929.38;;;23.37;78.55
8075;BME280;4080;42.676;23.372;2022-09-12T11:51:30;94914.50;;;22.92;79.35
8075;BME280;4080;42.676;23.372;2022-09-12T11:54:10;94932.72;;;22.68;80.26
8075;BME280;4080;42.676;23.372;2022-09-12T11:56:43;94935.19;;;22.60;80.68
8075;BME280;4080;42.676;23.372;2022-09-12T11:59:16;94932.00;;;22.71;81.36
8075;BME280;4080;42.676;23.372;2022-09-12T12:01:50;94931.41;;;22.77;81.18
8075;BME280;4080;42.676;23.372;2022-09-12T12:04:24;94937.50;;;22.90;80.89
8075;BME280;4080;42.676;23.372;2022-09-12T12:06:56;94939.75;;;22.88;80.12
8075;BME280;4080;42.676;23.372;2022-09-12T12:09:27;94910.31;;;22.63;81.79
8075;BME280;4080;42.676;23.372;2022-09-12T12:11:57;94915.97;;;22.74;82.79
8075;BME280;4080;42.676;23.372;2022-09-12T12:14:31;94922.56;;;22.77;82.73
8075;BME280;4080;42.676;23.372;2022-09-12T12:16:58;94904.00;;;22.87;83.71
8075;BME280;4080;42.676;23.372;2022-09-12T12:19:32;94925.34;;;23.12;82.74
8075;BME280;4080;42.676;23.372;2022-09-12T12:22:07;94915.59;;;23.39;82.42
8075;BME280;4080;42.676;23.372;2022-09-12T12:25:03;94927.91;;;23.40;73.89
8075;BME280;4080;42.676;23.372;2022-09-12T12:27:50;94905.88;;;23.34;71.84
8075;BME280;4080;42.676;23.372;2022-09-12T12:33:53;94918.75;;;23.09;73.75
8075;BME280;4080;42.676;23.372;2022-09-12T12:36:41;94907.72;;;23.14;74.63
8075;BME280;4080;42.676;23.372;2022-09-12T12:48:34;94903.13;;;23.50;77.32
8075;BME280;4080;42.676;23.372;2022-09-12T12:53:56;94908.63;;;23.38;76.62
8075;BME280;4080;42.676;23.372;2022-09-12T12:56:27;94907.28;;;23.28;77.97
8075;BME280;4080;42.676;23.372;2022-09-12T12:58:59;94909.34;;;23.35;78.87
8075;BME280;4080;42.676;23.372;2022-09-12T13:01:28;94916.81;;;23.26;77.36
8075;BME280;4080;42.676;23.372;2022-09-12T13:03:58;94914.75;;;23.19;77.50
8075;BME280;4080;42.676;23.372;2022-09-12T13:06:31;94920.06;;;23.00;80.33
8075;BME280;4080;42.676;23.372;2022-09-12T13:09:02;94918.75;;;22.78;81.64
8075;BME280;4080;42.676;23.372;2022-09-12T13:11:32;94923.78;;;22.79;83.35
8075;BME280;4080;42.676;23.372;2022-09-12T13:14:01;94906.25;;;22.70;81.63
8075;BME280;4080;42.676;23.372;2022-09-12T13:16:33;94920.41;;;22.67;82.16
8075;BME280;4080;42.676;23.372;2022-09-12T13:19:05;94892.97;;;22.45;84.33
8075;BME280;4080;42.676;23.372;2022-09-12T13:21:32;94909.00;;;22.57;85.59
8075;BME280;4080;42.676;23.372;2022-09-12T13:24:01;94909.38;;;22.72;85.75
8075;BME280;4080;42.676;23.372;2022-09-12T13:26:33;94900.63;;;22.75;84.78
8075;BME280;4080;42.676;23.372;2022-09-12T13:29:11;94919.44;;;22.75;84.57
8075;BME280;4080;42.676;23.372;2022-09-12T13:31:39;94902.72;;;22.66;84.75
8075;BME280;4080;42.676;23.372;2022-09-12T13:34:08;94903.81;;;22.65;83.79
8075;BME280;4080;42.676;23.372;2022-09-12T13:36:45;94902.50;;;22.58;80.40
8075;BME280;4080;42.676;23.372;2022-09-12T13:39:19;94908.84;;;22.50;82.07
8075;BME280;4080;42.676;23.372;2022-09-12T13:42:24;94912.81;;;22.56;80.51
8075;BME280;4080;42.676;23.372;2022-09-12T13:44:58;94911.78;;;22.61;79.98
8075;BME280;4080;42.676;23.372;2022-09-12T13:47:31;94905.72;;;22.48;80.02
8075;BME280;4080;42.676;23.372;2022-09-12T13:49:59;94902.41;;;22.39;81.45
8075;BME280;4080;42.676;23.372;2022-09-12T13:52:29;94894.78;;;22.41;83.24
8075;BME280;4080;42.676;23.372;2022-09-12T13:54:58;94904.94;;;22.63;84.10